createdAt,value
2019-03-02T00:00:16.834Z,5.60
2019-03-02T00:03:05.110Z,5.60
2019-03-02T00:05:53.045Z,5.60
2019-03-02T00:08:41.176Z,5.60
2019-03-02T00:11:29.168Z,5.50
2019-03-02T00:14:19.291Z,5.40
2019-03-02T00:17:08.219Z,5.50
2019-03-02T00:19:56.115Z,5.50
2019-03-02T00:22:45.515Z,5.40
2019-03-02T00:25:34.180Z,5.40
2019-03-02T00:28:23.131Z,5.40
2019-03-02T00:31:11.197Z,5.30
2019-03-02T00:33:59.317Z,5.30
2019-03-02T00:36:46.861Z,5.40
2019-03-02T00:39:34.834Z,5.40
2019-03-02T00:42:22.819Z,5.50
2019-03-02T00:45:14.186Z,5.50
2019-03-02T00:48:00.201Z,5.50
2019-03-02T00:50:48.369Z,5.50
2019-03-02T00:53:36.668Z,5.50
2019-03-02T00:56:25.019Z,5.40
2019-03-02T00:59:15.844Z,5.30
2019-03-02T01:02:04.443Z,5.30
2019-03-02T01:04:53.703Z,5.30
2019-03-02T01:07:41.826Z,5.30
2019-03-02T01:10:30.097Z,5.30
2019-03-02T01:13:23.114Z,5.30
2019-03-02T01:16:11.110Z,5.30
2019-03-02T01:18:59.009Z,5.30
2019-03-02T01:21:46.846Z,5.20
2019-03-02T01:24:35.648Z,5.20
2019-03-02T01:27:26.657Z,5.30
2019-03-02T01:30:16.324Z,5.30
2019-03-02T01:33:04.731Z,5.40
2019-03-02T01:35:53.947Z,5.30
2019-03-02T01:38:42.101Z,5.30
2019-03-02T01:41:30.115Z,5.30
2019-03-02T01:44:18.121Z,5.30
2019-03-02T01:47:05.842Z,5.30
2019-03-02T01:49:53.616Z,5.20
2019-03-02T01:52:41.780Z,5.20
2019-03-02T01:55:31.197Z,5.10
2019-03-02T01:58:18.462Z,5.00
2019-03-02T02:01:06.449Z,5.00
2019-03-02T02:03:54.924Z,5.00
2019-03-02T02:06:43.593Z,5.00
2019-03-02T02:09:31.571Z,4.90
2019-03-02T02:12:19.364Z,4.90
2019-03-02T02:15:09.537Z,4.90
2019-03-02T02:17:57.690Z,4.90
2019-03-02T02:20:46.885Z,4.90
2019-03-02T02:23:35.905Z,4.90
2019-03-02T02:26:25.152Z,4.90
2019-03-02T02:29:13.121Z,4.90
2019-03-02T02:32:01.308Z,4.90
2019-03-02T02:34:49.355Z,4.90
2019-03-02T02:37:38.422Z,4.90
2019-03-02T02:40:26.395Z,4.90
2019-03-02T02:43:20.505Z,4.90
2019-03-02T02:46:04.505Z,4.90
2019-03-02T02:48:52.786Z,4.90
2019-03-02T02:51:49.366Z,4.90
2019-03-02T02:54:36.056Z,5.00
2019-03-02T02:57:23.837Z,5.00
2019-03-02T03:00:19.232Z,5.00
2019-03-02T03:03:07.475Z,5.00
2019-03-02T03:05:55.691Z,5.00
2019-03-02T03:08:47.355Z,5.10
2019-03-02T03:11:35.183Z,5.10
2019-03-02T03:14:23.172Z,5.20
2019-03-02T03:17:11.294Z,5.10
2019-03-02T03:19:59.060Z,5.10
2019-03-02T03:22:47.610Z,5.00
2019-03-02T03:25:35.899Z,5.10
2019-03-02T03:28:25.932Z,5.10
2019-03-02T03:31:21.684Z,5.10
2019-03-02T03:34:02.801Z,5.10
2019-03-02T03:36:51.319Z,5.10
2019-03-02T03:39:41.913Z,5.10
2019-03-02T03:42:29.504Z,5.00
2019-03-02T03:45:17.169Z,5.10
2019-03-02T03:48:05.655Z,5.00
2019-03-02T03:50:54.023Z,5.00
2019-03-02T03:53:41.709Z,5.10
2019-03-02T03:56:30.051Z,5.00
2019-03-02T03:59:19.172Z,4.90
2019-03-02T04:02:07.666Z,5.00
2019-03-02T04:04:56.331Z,5.00
2019-03-02T04:07:49.658Z,5.00
2019-03-02T04:10:34.478Z,5.00
2019-03-02T04:13:22.604Z,5.00
2019-03-02T04:16:10.874Z,5.00
2019-03-02T04:18:59.896Z,5.00
2019-03-02T04:21:48.649Z,5.00
2019-03-02T04:24:39.587Z,5.00
2019-03-02T04:27:26.077Z,5.00
2019-03-02T04:30:20.295Z,5.00
2019-03-02T04:33:08.238Z,5.00
2019-03-02T04:35:56.018Z,5.00
2019-03-02T04:38:44.227Z,5.10
2019-03-02T04:41:31.842Z,5.00
2019-03-02T04:44:20.059Z,5.10
2019-03-02T04:47:07.782Z,5.10
2019-03-02T04:49:55.492Z,5.10
2019-03-02T04:52:46.720Z,5.10
2019-03-02T04:55:33.053Z,5.00
2019-03-02T04:58:23.956Z,5.00
2019-03-02T05:01:12.814Z,5.10
2019-03-02T05:04:01.141Z,5.10
2019-03-02T05:06:50.634Z,5.10
2019-03-02T05:09:38.995Z,5.10
2019-03-02T05:12:27.009Z,5.10
2019-03-02T05:15:16.341Z,5.10
2019-03-02T05:18:05.143Z,5.10
2019-03-02T05:20:53.353Z,5.20
2019-03-02T05:23:41.198Z,5.10
2019-03-02T05:26:29.568Z,5.10
2019-03-02T05:29:17.749Z,5.10
2019-03-02T05:32:06.679Z,5.10
2019-03-02T05:34:54.446Z,5.10
2019-03-02T05:37:42.489Z,5.00
2019-03-02T05:40:31.573Z,5.00
2019-03-02T05:43:19.783Z,5.00
2019-03-02T05:46:07.725Z,5.00
2019-03-02T05:48:55.766Z,5.10
2019-03-02T05:51:46.160Z,5.20
2019-03-02T05:54:34.637Z,5.30
2019-03-02T05:57:22.739Z,5.20
2019-03-02T06:00:11.780Z,5.30
2019-03-02T06:02:59.969Z,5.30
2019-03-02T06:05:47.972Z,5.40
2019-03-02T06:08:36.369Z,5.30
2019-03-02T06:11:24.598Z,5.30
2019-03-02T06:14:13.932Z,5.20
2019-03-02T06:17:04.244Z,5.20
2019-03-02T06:19:51.914Z,5.30
2019-03-02T06:22:40.153Z,5.30
2019-03-02T06:25:29.960Z,5.30
2019-03-02T06:28:23.001Z,5.30
2019-03-02T06:31:11.074Z,5.30
2019-03-02T06:33:59.481Z,5.30
2019-03-02T06:36:47.832Z,5.30
2019-03-02T06:39:36.386Z,5.30
2019-03-02T06:42:24.317Z,5.30
2019-03-02T06:45:12.037Z,5.30
2019-03-02T06:48:00.156Z,5.30
2019-03-02T06:50:48.774Z,5.30
2019-03-02T06:53:37.093Z,5.30
2019-03-02T06:56:25.849Z,5.30
2019-03-02T06:59:13.527Z,5.20
2019-03-02T07:02:01.709Z,5.20
2019-03-02T07:04:50.406Z,5.20
2019-03-02T07:07:38.851Z,5.30
2019-03-02T07:10:27.164Z,5.30
2019-03-02T07:13:21.217Z,5.30
2019-03-02T07:16:07.914Z,5.30
2019-03-02T07:19:04.617Z,5.30
2019-03-02T07:21:53.155Z,5.30
2019-03-02T07:24:41.598Z,5.30
2019-03-02T07:27:30.490Z,5.30
2019-03-02T07:30:18.302Z,5.40
2019-03-02T07:33:06.274Z,5.40
2019-03-02T07:35:55.491Z,5.40
2019-03-02T07:38:44.173Z,5.40
2019-03-02T07:41:32.127Z,5.40
2019-03-02T07:44:22.286Z,5.40
2019-03-02T07:47:12.571Z,5.40
2019-03-02T07:50:00.543Z,5.50
2019-03-02T07:52:49.676Z,5.40
2019-03-02T07:55:38.451Z,5.40
2019-03-02T07:58:26.760Z,5.40
2019-03-02T08:01:16.715Z,5.40
2019-03-02T08:04:07.803Z,5.40
2019-03-02T08:06:57.953Z,5.50
2019-03-02T08:09:45.444Z,5.60
2019-03-02T08:12:33.663Z,5.60
2019-03-02T08:15:24.225Z,5.60
2019-03-02T08:18:12.330Z,5.60
2019-03-02T08:21:00.702Z,5.70
2019-03-02T08:23:52.480Z,5.80
2019-03-02T08:26:43.715Z,5.80
2019-03-02T08:29:31.657Z,5.90
2019-03-02T08:32:21.171Z,6.00
2019-03-02T08:35:09.747Z,6.00
2019-03-02T08:37:57.874Z,6.00
2019-03-02T08:40:45.802Z,6.10
2019-03-02T08:43:33.962Z,6.20
2019-03-02T08:46:22.335Z,6.30
2019-03-02T08:49:16.593Z,6.40
2019-03-02T08:52:04.808Z,6.50
2019-03-02T08:54:53.572Z,6.60
2019-03-02T08:57:41.659Z,6.60
2019-03-02T09:00:33.044Z,6.70
2019-03-02T09:03:21.292Z,6.70
2019-03-02T09:06:11.772Z,6.70
2019-03-02T09:08:58.396Z,6.70
2019-03-02T09:11:46.144Z,6.70
2019-03-02T09:14:33.913Z,6.80
2019-03-02T09:17:21.695Z,6.90
2019-03-02T09:20:10.563Z,6.90
2019-03-02T09:23:00.730Z,7.00
2019-03-02T09:25:47.742Z,7.20
2019-03-02T09:28:35.525Z,7.20
2019-03-02T09:31:26.448Z,7.30
2019-03-02T09:34:12.678Z,7.40
2019-03-02T09:37:00.138Z,7.50
2019-03-02T09:39:48.608Z,7.60
2019-03-02T09:42:40.281Z,7.70
2019-03-02T09:45:25.840Z,7.80
2019-03-02T09:48:13.359Z,7.80
2019-03-02T09:51:01.026Z,7.90
2019-03-02T09:53:48.802Z,7.90
2019-03-02T09:56:36.676Z,7.90
2019-03-02T09:59:24.486Z,8.00
2019-03-02T10:02:14.480Z,8.00
2019-03-02T10:05:01.987Z,8.10
2019-03-02T10:07:49.980Z,8.10
2019-03-02T10:10:37.340Z,8.00
2019-03-02T10:13:25.022Z,7.60
2019-03-02T10:16:12.995Z,7.60
2019-03-02T10:19:00.629Z,7.70
2019-03-02T10:21:48.779Z,7.80
2019-03-02T10:24:36.927Z,7.90
2019-03-02T10:27:24.363Z,8.00
2019-03-02T10:30:13.760Z,8.10
2019-03-02T10:33:01.637Z,8.20
2019-03-02T10:35:49.592Z,8.30
2019-03-02T10:38:38.563Z,8.40
2019-03-02T10:41:25.809Z,8.40
2019-03-02T10:44:13.613Z,8.50
2019-03-02T10:47:01.653Z,8.50
2019-03-02T10:49:50.041Z,8.60
2019-03-02T10:52:37.505Z,8.50
2019-03-02T10:55:25.113Z,8.40
2019-03-02T10:58:12.975Z,8.50
2019-03-02T11:01:03.364Z,8.60
2019-03-02T11:03:50.846Z,8.60
2019-03-02T11:06:51.803Z,8.50
2019-03-02T11:09:58.380Z,8.40
2019-03-02T11:13:11.357Z,8.40
2019-03-02T11:16:30.608Z,8.50
2019-03-02T11:19:38.290Z,8.50
2019-03-02T11:23:03.650Z,8.50
2019-03-02T11:26:16.832Z,8.60
2019-03-02T11:29:24.523Z,8.80
2019-03-02T11:32:46.468Z,8.80
2019-03-02T11:35:43.071Z,9.00
2019-03-02T11:38:41.416Z,9.00
2019-03-02T11:41:45.947Z,8.90
2019-03-02T11:45:04.702Z,8.90
2019-03-02T11:48:13.741Z,8.90
2019-03-02T11:51:34.451Z,9.00
2019-03-02T11:54:34.172Z,8.90
2019-03-02T11:57:41.136Z,8.90
2019-03-02T12:00:57.948Z,9.00
2019-03-02T12:04:03.205Z,9.00
2019-03-02T12:07:12.762Z,9.00
2019-03-02T12:10:06.753Z,9.00
2019-03-02T12:13:09.856Z,8.90
2019-03-02T12:16:22.250Z,8.90
2019-03-02T12:19:21.577Z,8.80
2019-03-02T12:22:30.159Z,8.80
2019-03-02T12:25:43.974Z,8.80
2019-03-02T12:28:46.327Z,8.70
2019-03-02T12:32:07.436Z,8.80
2019-03-02T12:35:05.918Z,8.80
2019-03-02T12:38:16.012Z,8.80
2019-03-02T12:41:22.798Z,8.80
2019-03-02T12:44:27.917Z,8.60
2019-03-02T12:47:34.524Z,8.70
2019-03-02T12:50:31.152Z,8.80
2019-03-02T12:53:47.408Z,8.80
2019-03-02T12:56:42.027Z,8.90
2019-03-02T12:59:54.525Z,8.90
2019-03-02T13:03:00.182Z,8.90
2019-03-02T13:05:58.861Z,8.90
2019-03-02T13:09:07.305Z,8.80
2019-03-02T13:12:23.519Z,8.80
2019-03-02T13:15:42.135Z,8.90
2019-03-02T13:18:40.317Z,9.00
2019-03-02T13:21:35.487Z,8.90
2019-03-02T13:24:37.284Z,8.90
2019-03-02T13:27:44.011Z,8.90
2019-03-02T13:30:39.167Z,8.90
2019-03-02T13:33:50.551Z,8.80
2019-03-02T13:37:06.485Z,8.80
2019-03-02T13:40:26.309Z,8.70
2019-03-02T13:43:36.757Z,8.70
2019-03-02T13:46:46.796Z,8.70
2019-03-02T13:50:05.802Z,8.60
2019-03-02T13:53:24.451Z,8.60
2019-03-02T13:56:37.106Z,8.80
2019-03-02T13:59:35.088Z,8.90
2019-03-02T14:02:35.101Z,8.80
2019-03-02T14:05:41.944Z,8.90
2019-03-02T14:08:35.632Z,8.90
2019-03-02T14:11:40.876Z,8.80
2019-03-02T14:14:47.600Z,8.90
2019-03-02T14:18:03.678Z,8.90
2019-03-02T14:21:19.828Z,8.90
2019-03-02T14:24:17.513Z,8.80
2019-03-02T14:27:22.962Z,8.80
2019-03-02T14:30:21.338Z,8.80
2019-03-02T14:33:29.463Z,8.80
2019-03-02T14:36:43.902Z,8.80
2019-03-02T14:39:43.056Z,8.80
2019-03-02T14:42:48.882Z,8.70
2019-03-02T14:45:46.788Z,8.70
2019-03-02T14:49:09.485Z,8.70
2019-03-02T14:52:14.615Z,8.80
2019-03-02T14:55:10.039Z,8.70
2019-03-02T14:58:17.097Z,8.60
2019-03-02T15:01:43.394Z,8.60
2019-03-02T15:04:53.492Z,8.60
2019-03-02T15:07:50.189Z,8.70
2019-03-02T15:10:48.852Z,8.70
2019-03-02T15:13:42.830Z,8.70
2019-03-02T15:16:55.749Z,8.70
2019-03-02T15:19:57.496Z,8.80
2019-03-02T15:22:49.750Z,8.70
2019-03-02T15:26:06.401Z,8.70
2019-03-02T15:28:59.095Z,8.70
2019-03-02T15:32:07.677Z,8.60
2019-03-02T15:35:14.050Z,8.40
2019-03-02T15:38:12.706Z,8.40
2019-03-02T15:41:25.768Z,8.50
2019-03-02T15:44:38.508Z,8.60
2019-03-02T15:47:40.970Z,8.40
2019-03-02T15:50:45.229Z,8.40
2019-03-02T15:53:58.395Z,8.30
2019-03-02T15:57:17.184Z,8.30
2019-03-02T16:00:24.208Z,8.30
2019-03-02T16:03:21.880Z,8.20
2019-03-02T16:06:32.328Z,8.20
2019-03-02T16:09:42.504Z,8.20
2019-03-02T16:12:44.109Z,8.20
2019-03-02T16:15:39.656Z,8.20
2019-03-02T16:19:06.210Z,8.10
2019-03-02T16:22:09.092Z,8.00
2019-03-02T16:25:08.442Z,8.00
2019-03-02T16:28:06.013Z,7.90
2019-03-02T16:31:09.548Z,7.90
2019-03-02T16:34:28.809Z,7.90
2019-03-02T16:37:25.299Z,7.80
2019-03-02T16:40:32.172Z,7.80
2019-03-02T16:43:27.208Z,7.80
2019-03-02T16:46:21.320Z,7.80
2019-03-02T16:49:19.739Z,7.70
2019-03-02T16:52:20.474Z,7.70
2019-03-02T16:55:26.210Z,7.70
2019-03-02T16:58:25.942Z,7.60
2019-03-02T17:01:36.441Z,7.50
2019-03-02T17:04:34.857Z,7.50
2019-03-02T17:07:31.923Z,7.50
2019-03-02T17:10:37.531Z,7.40
2019-03-02T17:13:33.568Z,7.40
2019-03-02T17:16:40.533Z,7.40
2019-03-02T17:19:36.846Z,7.50
2019-03-02T17:22:32.428Z,7.60
2019-03-02T17:25:44.083Z,7.70
2019-03-02T17:28:39.632Z,7.80
2019-03-02T17:31:45.109Z,7.90
2019-03-02T17:34:46.968Z,7.90
2019-03-02T17:37:52.255Z,7.90
2019-03-02T17:40:50.261Z,8.00
2019-03-02T17:43:51.320Z,8.00
2019-03-02T17:46:50.703Z,7.90
2019-03-02T17:50:02.624Z,7.80
2019-03-02T17:52:55.883Z,7.70
2019-03-02T17:55:55.217Z,7.60
2019-03-02T17:59:11.541Z,7.50
2019-03-02T18:02:18.655Z,7.50
2019-03-02T18:05:31.753Z,7.60
2019-03-02T18:08:48.079Z,7.50
2019-03-02T18:11:59.252Z,7.50
2019-03-02T18:15:10.246Z,7.50
2019-03-02T18:18:04.740Z,7.50
2019-03-02T18:20:55.845Z,7.50
2019-03-02T18:23:42.259Z,7.50
2019-03-02T18:26:29.731Z,7.50
2019-03-02T18:29:17.591Z,7.50
2019-03-02T18:32:05.805Z,7.40
2019-03-02T18:34:56.780Z,7.40
2019-03-02T18:37:43.140Z,7.40
2019-03-02T18:40:31.080Z,7.30
2019-03-02T18:43:18.960Z,7.20
2019-03-02T18:46:07.085Z,7.20
2019-03-02T18:49:14.932Z,7.10
2019-03-02T18:52:22.710Z,7.10
2019-03-02T18:55:10.291Z,7.00
2019-03-02T18:57:59.086Z,7.00
2019-03-02T19:00:48.345Z,6.80
2019-03-02T19:03:36.144Z,6.60
2019-03-02T19:06:26.771Z,6.40
2019-03-02T19:09:13.814Z,6.40
2019-03-02T19:12:01.084Z,6.40
2019-03-02T19:14:48.805Z,6.50
2019-03-02T19:17:42.950Z,6.50
2019-03-02T19:20:31.124Z,6.40
2019-03-02T19:23:19.077Z,6.40
2019-03-02T19:26:06.607Z,6.40
2019-03-02T19:28:53.932Z,6.40
2019-03-02T19:31:41.707Z,6.30
2019-03-02T19:34:29.991Z,6.20
2019-03-02T19:37:17.721Z,6.20
2019-03-02T19:40:07.437Z,6.30
2019-03-02T19:42:55.259Z,6.30
2019-03-02T19:45:42.962Z,6.40
2019-03-02T19:48:30.695Z,6.40
2019-03-02T19:51:18.329Z,6.40
2019-03-02T19:54:06.233Z,6.40
2019-03-02T19:56:53.576Z,6.40
2019-03-02T19:59:41.167Z,6.30
2019-03-02T20:02:29.257Z,6.30
2019-03-02T20:05:16.940Z,6.10
2019-03-02T20:08:04.804Z,5.90
2019-03-02T20:10:52.951Z,5.80
2019-03-02T20:13:40.678Z,5.70
2019-03-02T20:16:28.422Z,5.70
2019-03-02T20:19:16.401Z,5.70
2019-03-02T20:22:04.644Z,5.60
2019-03-02T20:24:52.682Z,5.50
2019-03-02T20:27:40.606Z,5.40
2019-03-02T20:30:28.709Z,5.30
2019-03-02T20:33:16.498Z,5.30
2019-03-02T20:36:04.569Z,5.20
2019-03-02T20:38:51.949Z,5.20
2019-03-02T20:41:39.661Z,5.10
2019-03-02T20:44:27.387Z,5.00
2019-03-02T20:47:14.843Z,4.80
2019-03-02T20:50:02.240Z,4.80
2019-03-02T20:52:49.831Z,4.60
2019-03-02T20:55:37.437Z,4.50
2019-03-02T20:58:25.305Z,4.50
2019-03-02T21:01:12.666Z,4.40
2019-03-02T21:04:00.526Z,4.40
2019-03-02T21:06:48.360Z,4.30
2019-03-02T21:09:36.675Z,4.30
2019-03-02T21:12:24.766Z,4.20
2019-03-02T21:15:15.338Z,4.20
2019-03-02T21:18:03.589Z,4.10
2019-03-02T21:20:51.573Z,4.00
2019-03-02T21:23:39.858Z,3.90
2019-03-02T21:26:28.084Z,3.90
2019-03-02T21:29:16.438Z,3.80
2019-03-02T21:32:04.063Z,3.80
2019-03-02T21:34:51.930Z,3.70
2019-03-02T21:37:40.369Z,3.70
2019-03-02T21:40:27.782Z,3.60
2019-03-02T21:43:15.437Z,3.60
2019-03-02T21:46:03.829Z,3.50
2019-03-02T21:48:51.459Z,3.50
2019-03-02T21:51:38.717Z,3.50
2019-03-02T21:54:26.333Z,3.60
2019-03-02T21:57:13.976Z,3.60
2019-03-02T22:00:01.593Z,3.70
2019-03-02T22:02:49.421Z,3.70
2019-03-02T22:05:36.591Z,3.80
2019-03-02T22:08:23.797Z,3.90
2019-03-02T22:11:11.960Z,4.00
2019-03-02T22:13:59.418Z,4.00
2019-03-02T22:16:46.865Z,4.10
2019-03-02T22:19:34.971Z,4.20
2019-03-02T22:22:22.236Z,4.30
2019-03-02T22:25:11.750Z,4.30
2019-03-02T22:27:59.950Z,4.30
2019-03-02T22:30:47.603Z,4.20
2019-03-02T22:33:35.116Z,4.20
2019-03-02T22:36:22.947Z,4.30
2019-03-02T22:39:11.166Z,4.40
2019-03-02T22:41:58.909Z,4.50
2019-03-02T22:44:46.533Z,4.60
2019-03-02T22:47:33.989Z,4.70
2019-03-02T22:50:22.820Z,4.80
2019-03-02T22:53:10.555Z,4.90
2019-03-02T22:55:58.173Z,4.90
2019-03-02T22:58:45.114Z,5.00
2019-03-02T23:02:07.340Z,5.10
2019-03-02T23:04:55.283Z,5.10
2019-03-02T23:07:42.809Z,5.20
2019-03-02T23:10:30.449Z,5.20
2019-03-02T23:13:18.482Z,5.20
2019-03-02T23:16:06.540Z,5.30
2019-03-02T23:18:54.369Z,5.30
2019-03-02T23:21:42.058Z,5.30
2019-03-02T23:24:29.634Z,5.30
2019-03-02T23:27:17.240Z,5.30
2019-03-02T23:30:06.189Z,5.40
2019-03-02T23:32:54.144Z,5.40
2019-03-02T23:35:42.217Z,5.40
2019-03-02T23:38:29.979Z,5.40
2019-03-02T23:41:18.027Z,5.40
2019-03-02T23:44:06.284Z,5.40
2019-03-02T23:46:54.496Z,5.40
2019-03-02T23:49:42.264Z,5.50
2019-03-02T23:52:30.145Z,5.60
2019-03-02T23:55:18.194Z,5.60
2019-03-02T23:58:06.267Z,5.50
